Time;durP1;ratioP1;P1;durP2;ratioP2;P2;SDS_P1;SDS_P2;PMS_P1;PMS_P2;Temp;Humidity;BMP_temperature;BMP_pressure;BME280_temperature;BME280_humidity;BME280_pressure;Samples;Min_cycle;Max_cycle;Signal;HPM_P1;HPM_P2
2023/10/20 00:01:49;;;;;;;4.18;3.20;;;17.00;99.90;;;;;;4979581;28;20180;-73
2023/10/20 00:04:17;;;;;;;3.25;2.95;;;17.10;99.90;;;;;;4979374;28;20215;-73
2023/10/20 00:06:46;;;;;;;3.92;3.00;;;17.00;99.90;;;;;;4980059;28;20306;-67
2023/10/20 00:09:14;;;;;;;3.45;3.00;;;17.00;99.90;;;;;;4979506;28;20187;-66
2023/10/20 00:11:41;;;;;;;3.67;3.00;;;17.00;99.90;;;;;;4979783;28;20231;-67
2023/10/20 00:14:07;;;;;;;3.25;2.95;;;17.00;99.90;;;;;;4979401;28;20187;-67
2023/10/20 00:16:35;;;;;;;3.72;3.22;;;17.00;99.90;;;;;;4978735;28;20180;-67
2023/10/20 00:19:01;;;;;;;3.28;2.97;;;17.00;99.90;;;;;;4979343;28;20347;-68
2023/10/20 00:21:29;;;;;;;4.70;3.38;;;17.00;99.90;;;;;;4993952;28;20211;-67
2023/10/20 00:23:59;;;;;;;3.85;3.40;;;17.00;99.90;;;;;;4980631;28;20290;-67
2023/10/20 00:26:27;;;;;;;3.53;3.17;;;17.00;99.90;;;;;;4992128;28;20232;-67
2023/10/20 00:28:53;;;;;;;3.70;3.28;;;17.00;99.90;;;;;;4978759;28;20180;-69
2023/10/20 00:31:18;;;;;;;3.95;3.58;;;17.00;99.90;;;;;;4988085;28;20183;-67
2023/10/20 00:33:45;;;;;;;3.47;3.17;;;17.00;99.90;;;;;;4977487;28;20180;-67
2023/10/20 00:36:14;;;;;;;3.90;3.53;;;16.90;99.90;;;;;;4978905;28;20190;-67
2023/10/20 00:38:42;;;;;;;3.40;3.10;;;16.90;99.90;;;;;;4978750;28;20282;-67
2023/10/20 00:41:08;;;;;;;4.50;3.65;;;17.00;99.90;;;;;;4977337;28;20199;-68
2023/10/20 00:43:39;;;;;;;3.97;3.55;;;16.90;99.90;;;;;;4961634;28;20231;-67
2023/10/20 00:46:07;;;;;;;3.97;3.58;;;16.90;99.90;;;;;;4975304;28;20263;-67
2023/10/20 00:48:37;;;;;;;3.92;3.53;;;16.90;99.90;;;;;;4975284;28;20260;-68
2023/10/20 00:51:05;;;;;;;3.90;3.50;;;16.90;99.90;;;;;;4976777;28;20180;-68
2023/10/20 00:53:36;;;;;;;4.07;3.67;;;16.90;99.90;;;;;;4984260;28;20207;-68
2023/10/20 00:56:10;;;;;;;4.80;3.72;;;16.90;99.90;;;;;;4987007;28;20180;-68
2023/10/20 00:58:37;;;;;;;5.20;4.07;;;16.90;99.90;;;;;;4978494;28;20229;-68
2023/10/20 01:01:04;;;;;;;4.30;3.90;;;16.90;99.90;;;;;;4978266;28;20176;-67
2023/10/20 01:03:32;;;;;;;3.63;3.33;;;16.90;99.90;;;;;;4967167;28;20214;-67
2023/10/20 01:05:58;;;;;;;3.85;3.45;;;16.90;99.90;;;;;;4981330;28;20220;-69
2023/10/20 01:08:24;;;;;;;3.65;3.28;;;16.90;99.90;;;;;;4978105;28;20186;-67
2023/10/20 01:10:53;;;;;;;4.00;3.60;;;16.90;99.90;;;;;;4994545;28;20274;-68
2023/10/20 01:13:19;;;;;;;3.55;3.22;;;16.90;99.90;;;;;;4978398;28;20177;-68
2023/10/20 01:15:46;;;;;;;3.72;3.35;;;16.90;99.90;;;;;;4978487;28;20180;-67
2023/10/20 01:18:14;;;;;;;4.30;3.58;;;16.90;99.90;;;;;;4978167;28;20211;-68
2023/10/20 01:20:40;;;;;;;4.50;3.65;;;16.90;99.90;;;;;;4974871;28;20194;-68
2023/10/20 01:23:08;;;;;;;4.53;3.63;;;16.90;99.90;;;;;;4975104;28;20177;-68
2023/10/20 01:25:38;;;;;;;4.03;3.60;;;16.90;99.90;;;;;;4978316;28;20183;-68
2023/10/20 01:28:09;;;;;;;4.35;3.22;;;16.90;99.90;;;;;;4978151;28;20516;-68
2023/10/20 01:30:35;;;;;;;3.33;3.03;;;16.90;99.90;;;;;;4985119;28;20203;-68
2023/10/20 01:33:06;;;;;;;3.25;2.95;;;16.90;99.90;;;;;;4997410;28;20172;-68
2023/10/20 01:35:31;;;;;;;3.63;3.33;;;16.90;99.90;;;;;;4997369;28;20171;-67
2023/10/20 01:37:59;;;;;;;3.45;3.13;;;16.90;99.90;;;;;;4982641;28;20211;-68
2023/10/20 01:40:27;;;;;;;3.88;3.47;;;16.90;99.90;;;;;;4978168;28;20263;-68
2023/10/20 01:42:55;;;;;;;4.45;3.35;;;16.90;99.90;;;;;;4992327;28;20179;-70
2023/10/20 01:45:25;;;;;;;4.07;3.17;;;16.90;99.90;;;;;;4986789;28;20183;-68
2023/10/20 01:47:55;;;;;;;4.95;3.28;;;16.90;99.90;;;;;;4977874;28;20251;-68
2023/10/20 01:50:20;;;;;;;3.30;3.00;;;16.90;99.90;;;;;;4977664;28;20207;-68
2023/10/20 01:52:49;;;;;;;3.58;3.17;;;16.90;99.90;;;;;;4972965;28;20169;-68
2023/10/20 01:55:14;;;;;;;4.00;3.60;;;16.80;99.90;;;;;;4958157;28;20180;-68
2023/10/20 01:57:40;;;;;;;4.53;3.80;;;16.90;99.90;;;;;;4985997;28;20184;-68
2023/10/20 02:00:08;;;;;;;3.83;3.47;;;16.90;99.90;;;;;;4977402;28;20180;-68
2023/10/20 02:02:34;;;;;;;4.63;3.33;;;16.90;99.90;;;;;;4974758;28;20214;-68
2023/10/20 02:05:00;;;;;;;3.83;3.30;;;16.90;99.90;;;;;;4993347;28;20195;-68
2023/10/20 02:07:25;;;;;;;4.00;3.63;;;16.90;99.90;;;;;;4977295;28;20195;-68
2023/10/20 02:09:51;;;;;;;3.90;3.28;;;16.90;99.90;;;;;;4975891;28;20223;-68
2023/10/20 02:12:19;;;;;;;3.50;3.15;;;16.90;99.90;;;;;;4972035;28;20254;-69
2023/10/20 02:14:46;;;;;;;4.32;3.20;;;16.90;99.90;;;;;;4976877;28;20255;-70
2023/10/20 02:17:14;;;;;;;3.72;3.33;;;16.90;99.90;;;;;;4976942;28;20276;-69
2023/10/20 02:19:40;;;;;;;3.20;2.90;;;16.90;99.90;;;;;;4976425;28;20219;-69
2023/10/20 02:22:05;;;;;;;3.47;3.08;;;16.80;99.90;;;;;;4980059;28;20238;-69
2023/10/20 02:24:33;;;;;;;2.85;2.55;;;16.80;99.90;;;;;;4978221;28;20292;-70
2023/10/20 02:27:01;;;;;;;2.90;2.60;;;16.80;99.90;;;;;;4970415;28;20176;-69
2023/10/20 02:29:26;;;;;;;2.55;2.35;;;16.80;99.90;;;;;;4976548;28;20199;-69
2023/10/20 02:31:54;;;;;;;2.40;2.20;;;16.80;99.90;;;;;;4976708;28;20251;-69
2023/10/20 02:34:21;;;;;;;3.03;2.40;;;16.80;99.90;;;;;;4977346;28;20258;-69
2023/10/20 02:36:49;;;;;;;4.05;2.40;;;16.80;99.90;;;;;;4976822;28;20184;-69
2023/10/20 02:39:15;;;;;;;2.72;1.77;;;16.80;99.90;;;;;;4973311;28;20200;-69
2023/10/20 02:41:40;;;;;;;2.40;2.20;;;16.80;99.90;;;;;;4971666;28;20204;-69
2023/10/20 02:44:08;;;;;;;2.40;2.20;;;16.80;99.90;;;;;;4975915;28;20195;-69
2023/10/20 02:46:34;;;;;;;2.40;2.08;;;16.80;99.90;;;;;;4988834;28;20181;-69
2023/10/20 02:49:02;;;;;;;2.10;1.90;;;16.80;99.90;;;;;;4985607;28;20215;-69
2023/10/20 02:51:28;;;;;;;2.00;1.80;;;16.80;99.90;;;;;;4976230;28;20172;-69
2023/10/20 02:53:53;;;;;;;1.70;1.60;;;16.80;99.90;;;;;;4976176;28;20210;-69
2023/10/20 02:56:24;;;;;;;2.47;1.77;;;16.80;99.90;;;;;;4975909;28;20188;-69
2023/10/20 02:58:52;;;;;;;1.80;1.70;;;16.80;99.90;;;;;;4972718;28;20189;-69
2023/10/20 03:01:18;;;;;;;2.35;1.90;;;16.80;99.90;;;;;;4969998;28;20203;-68
2023/10/20 03:03:46;;;;;;;3.70;1.70;;;16.90;99.90;;;;;;4986276;28;20203;-69
2023/10/20 03:06:12;;;;;;;1.60;1.45;;;16.90;99.90;;;;;;4986949;28;20195;-69
2023/10/20 03:08:39;;;;;;;1.83;1.50;;;16.90;99.90;;;;;;4977973;28;20250;-69
2023/10/20 03:11:08;;;;;;;1.63;1.42;;;16.90;99.90;;;;;;4986660;28;20183;-69
2023/10/20 03:13:34;;;;;;;1.73;1.60;;;16.90;99.90;;;;;;4967753;28;20272;-70
2023/10/20 03:16:02;;;;;;;2.35;1.67;;;16.90;99.90;;;;;;4957133;28;20212;-68
2023/10/20 03:18:28;;;;;;;1.58;1.42;;;16.90;99.90;;;;;;4972855;28;20248;-69
2023/10/20 03:20:53;;;;;;;1.85;1.75;;;16.90;99.90;;;;;;4968385;28;20231;-69
2023/10/20 03:23:20;;;;;;;2.20;1.60;;;16.90;99.90;;;;;;4989172;28;20203;-69
2023/10/20 03:25:48;;;;;;;1.67;1.58;;;16.90;99.90;;;;;;4975949;28;20315;-69
2023/10/20 03:28:13;;;;;;;1.90;1.70;;;16.90;99.90;;;;;;4976039;28;20196;-68
2023/10/20 03:30:46;;;;;;;1.95;1.75;;;16.90;99.90;;;;;;4975788;28;20230;-68
2023/10/20 03:33:13;;;;;;;1.98;1.77;;;16.90;99.90;;;;;;4956579;28;20198;-69
2023/10/20 03:35:40;;;;;;;3.25;2.03;;;16.90;99.90;;;;;;4984411;28;20234;-69
2023/10/20 03:38:07;;;;;;;3.25;2.33;;;16.90;99.90;;;;;;4975114;28;20204;-69
2023/10/20 03:40:40;;;;;;;3.13;1.98;;;16.90;99.90;;;;;;4975943;28;20202;-68
2023/10/20 03:43:12;;;;;;;4.20;2.10;;;16.80;99.90;;;;;;4975454;28;20168;-68
2023/10/20 03:45:42;;;;;;;2.55;2.10;;;16.90;99.90;;;;;;4975967;28;20178;-69
2023/10/20 03:48:13;;;;;;;3.35;2.33;;;16.90;99.90;;;;;;4980477;28;20275;-69
2023/10/20 03:50:44;;;;;;;2.80;2.10;;;16.90;99.90;;;;;;4978076;28;20176;-69
2023/10/20 03:53:18;;;;;;;3.60;2.33;;;16.90;99.90;;;;;;4975633;28;20200;-68
2023/10/20 03:55:46;;;;;;;4.38;2.13;;;16.90;99.90;;;;;;4964071;28;20179;-68
2023/10/20 03:58:13;;;;;;;2.35;2.15;;;16.90;99.90;;;;;;4975221;28;20182;-68
2023/10/20 04:00:42;;;;;;;3.00;2.33;;;16.90;99.90;;;;;;4969874;28;20207;-68
2023/10/20 04:03:10;;;;;;;3.42;2.75;;;16.90;99.90;;;;;;4985168;28;20228;-68
2023/10/20 04:05:36;;;;;;;6.95;5.40;;;16.90;99.90;;;;;;4975158;28;20204;-68
2023/10/20 04:08:01;;;;;;;4.80;3.78;;;16.90;99.90;;;;;;4975299;28;20223;-68
2023/10/20 04:10:29;;;;;;;3.67;2.88;;;16.90;99.90;;;;;;4975175;28;20168;-68
2023/10/20 04:12:55;;;;;;;3.20;2.75;;;16.80;99.90;;;;;;4974662;28;20219;-68
2023/10/20 04:15:26;;;;;;;3.92;2.95;;;16.80;99.90;;;;;;4957349;28;20188;-68
2023/10/20 04:17:51;;;;;;;2.70;2.50;;;16.90;99.90;;;;;;4978053;28;20245;-68
2023/10/20 04:20:23;;;;;;;3.03;2.72;;;16.90;99.90;;;;;;4978270;28;20544;-69
2023/10/20 04:22:49;;;;;;;3.03;2.67;;;16.80;99.90;;;;;;4988514;28;20276;-69
2023/10/20 04:25:23;;;;;;;3.15;2.58;;;16.90;99.90;;;;;;4978953;28;20251;-69
2023/10/20 04:27:50;;;;;;;3.03;2.72;;;16.80;99.90;;;;;;4978967;28;20254;-68
2023/10/20 05:05:59;;;;;;;2.92;2.63;;;16.70;99.90;;;;;;4974988;28;20241;-69
2023/10/20 05:08:05;;;;;;;3.00;2.67;;;16.70;99.90;;;;;;4983632;28;20192;-69
2023/10/20 05:10:35;;;;;;;2.63;2.42;;;16.70;99.90;;;;;;4977412;28;20195;-68
2023/10/20 05:13:03;;;;;;;3.22;2.70;;;16.80;99.90;;;;;;4974873;28;20231;-69
2023/10/20 05:15:33;;;;;;;4.03;2.83;;;16.70;99.90;;;;;;4971899;28;20263;-69
2023/10/20 05:17:58;;;;;;;2.70;2.50;;;16.80;99.90;;;;;;4958743;28;20228;-68
2023/10/20 05:20:25;;;;;;;2.58;2.38;;;16.80;99.90;;;;;;4970596;28;20181;-68
2023/10/20 05:22:51;;;;;;;3.25;2.15;;;16.80;99.90;;;;;;4971772;28;20202;-69
2023/10/20 05:25:19;;;;;;;3.15;2.33;;;16.80;99.90;;;;;;4960372;28;20302;-68
2023/10/20 05:27:44;;;;;;;2.90;2.60;;;16.80;99.90;;;;;;4978043;28;20180;-69
2023/10/20 05:30:13;;;;;;;2.95;2.47;;;16.70;99.90;;;;;;4990317;28;20187;-69
2023/10/20 05:32:38;;;;;;;2.40;2.15;;;16.80;99.90;;;;;;4977786;28;20196;-68
2023/10/20 05:35:08;;;;;;;2.50;2.15;;;16.80;99.90;;;;;;4977277;28;20240;-67
2023/10/20 05:37:39;;;;;;;2.88;2.00;;;16.80;99.90;;;;;;4978792;28;20191;-69
2023/10/20 05:40:05;;;;;;;2.88;2.25;;;16.80;99.90;;;;;;4997303;28;20214;-68
2023/10/20 05:42:33;;;;;;;2.75;2.33;;;16.70;99.90;;;;;;4978303;28;20194;-69
2023/10/20 05:45:13;;;;;;;2.78;2.00;;;16.70;99.90;;;;;;4977470;28;20251;-68
2023/10/20 05:47:41;;;;;;;3.60;2.40;;;16.70;99.90;;;;;;4977728;28;20172;-69
2023/10/20 05:50:07;;;;;;;2.20;2.00;;;16.70;99.90;;;;;;4971062;28;20172;-69
2023/10/20 05:52:35;;;;;;;2.35;1.85;;;16.70;99.90;;;;;;4973795;28;20271;-68
2023/10/20 05:55:04;;;;;;;2.17;1.98;;;16.70;99.90;;;;;;4959453;28;20188;-68
2023/10/20 05:57:32;;;;;;;2.53;2.15;;;16.70;99.90;;;;;;4966063;28;20306;-68
2023/10/20 06:00:00;;;;;;;2.25;1.88;;;16.70;99.90;;;;;;4974440;28;20218;-69
2023/10/20 06:02:28;;;;;;;2.40;2.20;;;16.70;99.90;;;;;;4965932;28;20184;-69
2023/10/20 06:04:54;;;;;;;2.30;2.10;;;16.70;99.90;;;;;;4977021;28;20204;-69
2023/10/20 06:07:20;;;;;;;3.22;2.10;;;16.70;99.90;;;;;;4977402;28;20178;-69
2023/10/20 06:09:49;;;;;;;2.25;2.05;;;16.70;99.90;;;;;;4977140;28;20176;-68
2023/10/20 06:12:14;;;;;;;2.42;2.05;;;16.70;99.90;;;;;;4977002;28;20266;-68
2023/10/20 06:14:40;;;;;;;2.42;2.10;;;16.70;99.90;;;;;;4973089;28;20275;-68
2023/10/20 06:17:06;;;;;;;2.40;2.10;;;16.70;99.90;;;;;;4976991;28;20227;-68
2023/10/20 06:19:31;;;;;;;2.47;2.28;;;16.70;99.90;;;;;;4977381;28;20223;-68
2023/10/20 06:21:57;;;;;;;3.00;2.47;;;16.70;99.90;;;;;;4976799;28;20271;-68
2023/10/20 06:24:23;;;;;;;2.63;2.42;;;16.70;99.90;;;;;;4976796;28;20317;-68
2023/10/20 06:26:49;;;;;;;3.92;2.53;;;16.70;99.90;;;;;;4976629;28;20308;-68
2023/10/20 06:31:55;;;;;;;3.30;2.47;;;16.70;99.90;;;;;;4976502;28;20172;-68
2023/10/20 06:34:23;;;;;;;5.53;2.30;;;16.60;99.90;;;;;;4992211;28;20191;-68
2023/10/20 06:37:08;;;;;;;2.63;2.38;;;16.60;99.90;;;;;;4992737;28;20270;-69
2023/10/20 06:39:37;;;;;;;2.83;2.30;;;16.60;99.90;;;;;;4976570;28;20250;-68
2023/10/20 06:42:03;;;;;;;3.20;2.65;;;16.60;99.90;;;;;;4976621;28;20172;-68
2023/10/20 06:44:29;;;;;;;3.03;2.50;;;16.70;99.90;;;;;;4976138;28;20208;-68
2023/10/20 06:46:56;;;;;;;3.42;2.80;;;16.60;99.90;;;;;;4973997;28;20172;-68
2023/10/20 06:49:23;;;;;;;4.28;3.03;;;16.60;99.90;;;;;;4960125;28;20204;-68
2023/10/20 06:51:49;;;;;;;4.70;2.92;;;16.60;99.90;;;;;;4976619;28;20168;-68
2023/10/20 06:54:16;;;;;;;3.35;2.90;;;16.60;99.90;;;;;;4992560;28;20265;-68
2023/10/20 06:56:44;;;;;;;3.83;3.42;;;16.60;99.90;;;;;;4989598;28;20238;-68
2023/10/20 06:59:13;;;;;;;3.42;2.72;;;16.60;99.90;;;;;;4986712;28;20282;-68
2023/10/20 07:01:41;;;;;;;3.72;3.05;;;16.60;99.90;;;;;;4976047;28;20204;-68
2023/10/20 07:04:09;;;;;;;4.07;3.03;;;16.60;99.90;;;;;;4972805;28;20203;-68
2023/10/20 07:06:44;;;;;;;3.63;2.97;;;16.60;99.90;;;;;;4972116;28;20180;-68
2023/10/20 07:09:13;;;;;;;3.92;3.42;;;16.60;99.90;;;;;;4973499;28;20234;-68
2023/10/20 07:11:40;;;;;;;3.17;2.70;;;16.60;99.90;;;;;;4976327;28;20230;-68
2023/10/20 07:14:05;;;;;;;3.50;3.20;;;16.60;99.90;;;;;;4973393;28;20207;-67
2023/10/20 07:16:32;;;;;;;3.97;3.58;;;16.60;99.90;;;;;;4959610;28;20188;-68
2023/10/20 07:18:58;;;;;;;3.35;3.05;;;16.60;99.90;;;;;;4975529;28;20198;-68
2023/10/20 07:21:24;;;;;;;4.63;3.35;;;16.60;99.90;;;;;;4976301;28;20179;-68
2023/10/20 07:23:50;;;;;;;4.47;3.28;;;16.60;99.90;;;;;;4976233;28;20204;-69
2023/10/20 07:26:17;;;;;;;4.32;3.35;;;16.60;99.90;;;;;;4984670;28;20278;-68
2023/10/20 07:28:46;;;;;;;4.93;3.40;;;16.60;99.90;;;;;;4976222;28;20260;-69
2023/10/20 07:31:15;;;;;;;4.40;3.67;;;16.60;99.90;;;;;;4975931;28;20172;-68
2023/10/20 07:33:41;;;;;;;4.00;3.60;;;16.60;99.90;;;;;;4975922;28;20206;-68
2023/10/20 07:36:07;;;;;;;4.22;3.67;;;16.60;99.90;;;;;;4969011;28;20184;-67
2023/10/20 07:38:34;;;;;;;4.80;3.80;;;16.60;99.90;;;;;;4956493;29;20274;-67
2023/10/20 07:41:07;;;;;;;4.28;3.53;;;16.60;99.90;;;;;;4964996;28;20176;-70
2023/10/20 07:43:38;;;;;;;4.35;3.95;;;16.60;99.90;;;;;;4974117;28;20223;-69
2023/10/20 07:46:05;;;;;;;6.40;4.13;;;16.60;99.90;;;;;;4976094;28;20172;-70
2023/10/20 07:48:32;;;;;;;4.63;4.13;;;16.60;99.90;;;;;;4976070;28;20176;-68
2023/10/20 07:50:59;;;;;;;4.45;4.05;;;16.70;99.90;;;;;;4979518;28;20270;-70
2023/10/20 07:53:26;;;;;;;5.03;4.40;;;16.60;99.90;;;;;;4979467;28;20275;-68
2023/10/20 07:55:52;;;;;;;4.82;3.90;;;16.70;99.90;;;;;;4980067;28;20180;-70
2023/10/20 07:58:17;;;;;;;4.75;4.25;;;16.70;99.90;;;;;;4987926;28;20249;-68
2023/10/20 08:00:43;;;;;;;4.97;4.53;;;16.70;99.90;;;;;;4979787;28;20171;-67
2023/10/20 08:03:11;;;;;;;5.55;4.40;;;16.70;99.90;;;;;;4979609;28;20200;-69
2023/10/20 08:05:39;;;;;;;5.38;4.55;;;16.70;99.90;;;;;;4973560;28;20193;-69
2023/10/20 08:08:05;;;;;;;4.80;4.30;;;16.70;99.90;;;;;;4975561;28;20237;-69
2023/10/20 08:10:32;;;;;;;4.95;4.30;;;16.70;99.90;;;;;;4978211;28;20172;-69
2023/10/20 08:12:59;;;;;;;4.35;3.83;;;16.70;99.90;;;;;;4978821;28;20176;-70
2023/10/20 08:15:28;;;;;;;5.10;4.13;;;16.70;99.90;;;;;;4976587;28;20235;-65
2023/10/20 08:17:54;;;;;;;5.50;4.72;;;16.70;99.90;;;;;;4978267;28;20184;-66
2023/10/20 08:20:20;;;;;;;6.35;4.35;;;16.70;99.90;;;;;;4960234;29;20177;-65
2023/10/20 08:22:48;;;;;;;5.18;4.50;;;16.80;99.90;;;;;;4970389;28;20180;-66
2023/10/20 08:25:15;;;;;;;4.40;4.00;;;16.70;99.90;;;;;;4974877;28;20272;-66
2023/10/20 08:27:47;;;;;;;5.38;4.00;;;16.70;99.90;;;;;;4978504;28;20478;-67
2023/10/20 08:30:13;;;;;;;4.75;3.72;;;16.70;99.90;;;;;;4979401;28;20260;-66
2023/10/20 08:32:42;;;;;;;5.55;4.65;;;16.70;99.90;;;;;;4979123;28;20180;-65
2023/10/20 08:35:08;;;;;;;5.53;4.53;;;16.70;99.90;;;;;;4976372;28;20188;-67
2023/10/20 08:37:36;;;;;;;5.35;4.43;;;16.70;99.90;;;;;;4978506;28;20203;-67
2023/10/20 08:40:10;;;;;;;5.53;4.70;;;16.80;99.90;;;;;;4959263;29;20263;-66
2023/10/20 08:42:40;;;;;;;4.43;4.03;;;16.80;99.90;;;;;;4963618;28;20176;-66
2023/10/20 08:45:15;;;;;;;5.22;4.72;;;16.80;99.90;;;;;;4978233;28;20204;-66
2023/10/20 08:47:45;;;;;;;6.18;5.18;;;16.90;99.90;;;;;;4958938;29;20207;-66
2023/10/20 08:50:15;;;;;;;4.93;4.32;;;16.90;99.90;;;;;;4975656;28;20208;-66
2023/10/20 08:52:41;;;;;;;5.40;4.45;;;16.90;99.90;;;;;;4962248;28;20211;-65
2023/10/20 08:55:09;;;;;;;5.72;4.63;;;16.90;99.90;;;;;;4976223;28;20223;-67
2023/10/20 08:57:37;;;;;;;8.20;4.43;;;17.00;99.90;;;;;;4977782;28;20175;-66
2023/10/20 09:00:07;;;;;;;4.82;4.32;;;17.00;99.90;;;;;;4977607;28;20235;-66
2023/10/20 09:02:37;;;;;;;4.88;4.22;;;17.00;99.90;;;;;;4977908;28;20266;-67
2023/10/20 09:05:03;;;;;;;5.20;4.45;;;17.00;99.90;;;;;;4978230;28;20216;-66
2023/10/20 09:07:31;;;;;;;5.65;4.40;;;17.00;99.90;;;;;;4983906;28;20179;-66
2023/10/20 09:09:56;;;;;;;4.82;4.35;;;17.00;99.90;;;;;;4981543;28;20231;-67
2023/10/20 09:12:22;;;;;;;4.90;4.28;;;17.10;99.90;;;;;;4977879;28;20196;-67
2023/10/20 09:14:48;;;;;;;4.32;3.92;;;17.10;99.90;;;;;;4962396;28;20189;-67
2023/10/20 09:17:24;;;;;;;6.07;4.93;;;17.10;99.90;;;;;;4960538;28;20204;-66
2023/10/20 09:19:49;;;;;;;4.78;4.28;;;17.10;99.90;;;;;;4975990;28;20191;-67
2023/10/20 09:22:25;;;;;;;5.38;4.55;;;17.20;99.90;;;;;;4977658;28;20179;-67
2023/10/20 09:24:56;;;;;;;4.90;4.35;;;17.20;99.90;;;;;;4976583;28;20203;-66
2023/10/20 09:27:24;;;;;;;6.75;4.40;;;17.20;99.90;;;;;;4978789;28;20203;-66
2023/10/20 09:29:51;;;;;;;6.50;4.38;;;17.20;99.90;;;;;;4991563;28;20192;-66
2023/10/20 09:32:17;;;;;;;4.80;4.35;;;17.20;99.90;;;;;;4964103;28;20187;-67
2023/10/20 09:34:45;;;;;;;4.75;4.20;;;17.20;99.90;;;;;;4978290;28;20172;-66
2023/10/20 09:37:13;;;;;;;5.13;4.35;;;17.20;99.90;;;;;;4977107;28;20222;-66
2023/10/20 09:39:41;;;;;;;6.22;3.92;;;17.20;99.90;;;;;;4977483;28;20238;-66
2023/10/20 09:42:13;;;;;;;5.35;4.22;;;17.20;99.90;;;;;;4977491;28;20295;-66
2023/10/20 09:44:55;;;;;;;5.20;4.30;;;17.20;99.90;;;;;;4970479;28;20191;-66
2023/10/20 09:47:28;;;;;;;4.65;4.25;;;17.20;99.90;;;;;;4974351;28;20264;-66
2023/10/20 09:49:54;;;;;;;5.15;4.35;;;17.20;99.90;;;;;;4964524;28;20184;-65
2023/10/20 09:52:20;;;;;;;6.03;4.82;;;17.20;99.90;;;;;;4976730;28;20259;-65
2023/10/20 09:54:50;;;;;;;6.15;5.03;;;17.20;99.90;;;;;;4958082;28;20228;-66
2023/10/20 09:57:20;;;;;;;6.30;4.85;;;17.20;99.90;;;;;;4975210;28;20244;-65
2023/10/20 09:59:53;;;;;;;6.05;5.07;;;17.30;99.90;;;;;;4968977;28;20287;-67
2023/10/20 10:02:32;;;;;;;5.60;4.88;;;17.30;99.90;;;;;;4973257;28;20276;-66
2023/10/20 10:05:00;;;;;;;5.97;4.47;;;17.30;99.90;;;;;;4959398;28;20209;-67
2023/10/20 10:07:35;;;;;;;10.93;4.60;;;17.30;99.90;;;;;;4974355;28;20196;-64
2023/10/20 10:10:01;;;;;;;5.20;4.38;;;17.30;99.90;;;;;;4977327;28;20172;-64
2023/10/20 10:12:28;;;;;;;5.18;4.35;;;17.30;99.90;;;;;;4967232;28;20215;-65
2023/10/20 10:15:01;;;;;;;5.00;4.40;;;17.40;99.90;;;;;;4973402;28;20184;-64
2023/10/20 10:17:29;;;;;;;5.82;4.70;;;17.40;99.90;;;;;;4962667;28;20180;-64
2023/10/20 10:19:56;;;;;;;6.65;4.63;;;17.40;99.90;;;;;;4975252;28;20200;-64
2023/10/20 10:22:26;;;;;;;5.93;4.60;;;17.40;99.90;;;;;;4980722;28;20192;-65
2023/10/20 10:24:54;;;;;;;4.70;4.20;;;17.40;99.90;;;;;;4976686;28;20220;-64
2023/10/20 10:27:22;;;;;;;4.97;4.05;;;17.40;99.90;;;;;;4967235;28;20375;-64
2023/10/20 10:29:53;;;;;;;7.20;4.10;;;17.50;99.90;;;;;;4957639;29;20204;-64
2023/10/20 10:32:20;;;;;;;4.60;4.03;;;17.50;99.90;;;;;;4967512;28;20266;-65
2023/10/20 10:34:51;;;;;;;4.78;3.97;;;17.50;99.90;;;;;;4975211;28;20176;-65
2023/10/20 10:37:34;;;;;;;4.50;3.92;;;17.50;99.90;;;;;;4976543;28;20220;-65
2023/10/20 10:40:14;;;;;;;4.53;4.03;;;17.50;99.90;;;;;;4976396;28;20204;-64
2023/10/20 10:42:47;;;;;;;4.60;4.10;;;17.50;99.90;;;;;;4989449;28;20183;-64
2023/10/20 10:45:31;;;;;;;4.55;3.80;;;17.50;99.90;;;;;;4956985;28;20204;-64
2023/10/20 10:48:07;;;;;;;4.25;3.85;;;17.60;99.90;;;;;;4973333;28;20206;-64
2023/10/20 10:50:36;;;;;;;4.60;4.00;;;17.50;99.90;;;;;;4969090;28;20270;-64
2023/10/20 10:53:02;;;;;;;5.10;4.53;;;17.50;99.90;;;;;;4965949;28;20171;-66
2023/10/20 10:55:29;;;;;;;4.35;3.88;;;17.50;99.90;;;;;;4983700;28;20182;-66
2023/10/20 10:58:00;;;;;;;5.93;4.25;;;17.50;99.90;;;;;;4976352;28;20172;-65
2023/10/20 11:00:27;;;;;;;4.57;3.92;;;17.50;99.90;;;;;;4975921;28;20190;-67
2023/10/20 11:02:57;;;;;;;5.72;4.32;;;17.50;99.90;;;;;;4968741;28;20204;-66
2023/10/20 11:05:23;;;;;;;6.90;4.68;;;17.50;99.90;;;;;;4984359;28;20258;-66
2023/10/20 11:07:56;;;;;;;6.03;4.57;;;17.50;99.90;;;;;;4957320;28;20176;-67
2023/10/20 11:10:29;;;;;;;5.65;4.47;;;17.50;99.90;;;;;;4956670;28;20186;-66
2023/10/20 11:12:59;;;;;;;5.22;4.60;;;17.50;99.90;;;;;;4956907;29;20267;-67
2023/10/20 11:15:28;;;;;;;6.00;4.72;;;17.60;99.90;;;;;;4956818;29;20263;-66
2023/10/20 11:17:59;;;;;;;7.15;4.85;;;17.70;99.90;;;;;;4956389;28;20176;-65
2023/10/20 11:20:25;;;;;;;4.65;4.10;;;17.80;99.90;;;;;;4976172;28;20176;-66
2023/10/20 11:22:56;;;;;;;4.93;4.38;;;17.90;99.90;;;;;;4968713;28;20299;-66
2023/10/20 11:25:25;;;;;;;4.65;4.13;;;17.90;99.90;;;;;;4975626;28;20203;-67
2023/10/20 11:27:57;;;;;;;6.03;4.28;;;17.90;99.90;;;;;;4976071;28;20260;-65
2023/10/20 11:30:23;;;;;;;4.85;4.35;;;17.90;99.90;;;;;;4975852;28;20196;-66
2023/10/20 11:32:48;;;;;;;5.30;4.43;;;17.90;99.90;;;;;;4975706;28;20257;-67
2023/10/20 11:35:14;;;;;;;4.53;4.10;;;17.90;99.90;;;;;;4975996;28;20212;-66
2023/10/20 11:37:46;;;;;;;7.68;4.30;;;17.90;99.90;;;;;;4972304;28;20197;-67
2023/10/20 11:40:13;;;;;;;4.32;3.78;;;17.90;99.90;;;;;;4965949;28;20188;-67
2023/10/20 11:42:41;;;;;;;4.55;4.10;;;17.90;99.90;;;;;;4970577;28;20197;-63
2023/10/20 11:45:07;;;;;;;4.38;3.97;;;18.00;99.90;;;;;;4982727;28;20203;-63
2023/10/20 11:47:33;;;;;;;4.18;3.78;;;18.00;99.90;;;;;;4972734;28;20247;-64
2023/10/20 11:50:02;;;;;;;4.55;4.07;;;18.00;99.90;;;;;;4970800;28;20188;-64
2023/10/20 11:52:28;;;;;;;5.13;4.22;;;18.00;99.90;;;;;;4960418;28;20207;-63
2023/10/20 11:54:56;;;;;;;5.03;3.90;;;18.00;99.90;;;;;;4973199;28;20544;-63
2023/10/20 11:57:21;;;;;;;4.30;3.90;;;18.00;99.90;;;;;;4973789;28;20176;-63
2023/10/20 11:59:51;;;;;;;4.88;4.35;;;18.00;99.90;;;;;;4964179;28;20185;-65
2023/10/20 12:02:24;;;;;;;4.35;3.95;;;17.90;99.90;;;;;;4971888;28;20231;-63
2023/10/20 12:04:50;;;;;;;4.85;4.25;;;18.00;99.90;;;;;;4972051;28;20189;-66
2023/10/20 12:07:16;;;;;;;4.55;4.07;;;18.00;99.90;;;;;;4975783;28;20191;-65
2023/10/20 12:09:41;;;;;;;4.63;4.13;;;18.00;99.90;;;;;;4972998;28;20357;-66
2023/10/20 12:12:08;;;;;;;4.53;3.90;;;18.00;99.90;;;;;;4975218;28;20241;-66
2023/10/20 12:14:34;;;;;;;5.03;4.35;;;18.00;99.90;;;;;;4991840;28;20200;-66
2023/10/20 12:16:59;;;;;;;4.75;4.25;;;18.10;99.90;;;;;;4988433;28;20330;-65
2023/10/20 12:19:27;;;;;;;4.50;4.10;;;18.10;99.90;;;;;;4992364;28;20207;-66
2023/10/20 12:21:53;;;;;;;4.05;3.65;;;18.20;99.90;;;;;;4992796;28;20290;-66
2023/10/20 12:24:21;;;;;;;4.32;3.92;;;18.30;99.90;;;;;;4973068;28;20348;-65
2023/10/20 12:26:52;;;;;;;4.60;4.20;;;18.40;99.90;;;;;;4963153;28;20176;-65
2023/10/20 12:29:22;;;;;;;4.50;3.92;;;18.40;99.90;;;;;;4971391;28;20177;-65
2023/10/20 12:31:48;;;;;;;4.30;3.67;;;18.50;99.90;;;;;;4974443;28;20198;-65
2023/10/20 12:34:14;;;;;;;4.90;4.32;;;18.60;99.90;;;;;;4975048;28;20211;-65
2023/10/20 12:36:41;;;;;;;4.30;3.90;;;18.60;99.90;;;;;;4974027;28;20176;-65
2023/10/20 12:39:18;;;;;;;4.05;3.63;;;18.60;99.90;;;;;;4965744;28;20187;-65
2023/10/20 12:41:46;;;;;;;4.22;3.63;;;18.60;99.90;;;;;;4977726;28;20216;-65
2023/10/20 12:44:15;;;;;;;4.03;3.63;;;18.60;99.90;;;;;;4974676;28;20204;-65
2023/10/20 12:46:40;;;;;;;3.72;3.28;;;18.60;99.90;;;;;;4970151;28;20176;-66
2023/10/20 12:49:06;;;;;;;4.07;3.67;;;18.50;99.90;;;;;;4975019;28;20187;-66
2023/10/20 12:51:33;;;;;;;4.22;3.83;;;18.50;99.90;;;;;;4978832;28;20184;-67
2023/10/20 12:54:03;;;;;;;4.32;3.90;;;18.50;99.90;;;;;;4974942;28;20199;-65
2023/10/20 12:56:29;;;;;;;4.32;3.92;;;18.40;99.90;;;;;;4977681;28;20200;-66
2023/10/20 12:58:55;;;;;;;4.40;4.00;;;18.30;99.90;;;;;;4978091;28;20188;-67
2023/10/20 13:01:21;;;;;;;3.50;3.20;;;18.30;99.90;;;;;;4959185;29;20281;-66
2023/10/20 13:03:49;;;;;;;5.22;3.92;;;18.20;99.90;;;;;;4970691;28;20236;-67
2023/10/20 13:06:15;;;;;;;4.07;3.67;;;18.20;99.90;;;;;;4977961;28;20180;-66
2023/10/20 13:08:43;;;;;;;4.72;4.30;;;18.20;99.90;;;;;;4971582;28;20299;-67
2023/10/20 13:11:11;;;;;;;5.00;3.92;;;18.10;99.90;;;;;;4976622;28;20183;-67
2023/10/20 13:13:37;;;;;;;4.50;4.10;;;18.10;99.90;;;;;;4977731;28;20168;-66
2023/10/20 13:16:08;;;;;;;4.03;3.63;;;18.10;99.90;;;;;;4972504;28;20204;-65
2023/10/20 13:18:34;;;;;;;4.35;3.80;;;18.00;99.90;;;;;;4973553;28;20179;-66
2023/10/20 13:21:05;;;;;;;4.68;4.22;;;18.00;99.90;;;;;;4977888;28;20172;-66
2023/10/20 13:23:33;;;;;;;4.10;3.70;;;18.00;99.90;;;;;;4986662;28;20188;-66
2023/10/20 13:26:08;;;;;;;4.15;3.75;;;18.00;99.90;;;;;;4969835;28;20172;-66
2023/10/20 13:28:34;;;;;;;4.93;4.10;;;18.00;99.90;;;;;;4977471;28;20175;-65
2023/10/20 13:31:03;;;;;;;4.78;4.28;;;18.00;99.90;;;;;;4977431;28;20222;-66